createdAt,value
2023-08-01T00:02:18.451Z,19.92
2023-08-01T00:04:45.513Z,20.01
2023-08-01T00:07:12.424Z,20.00
2023-08-01T00:09:39.279Z,20.00
2023-08-01T00:12:06.757Z,20.09
2023-08-01T00:14:33.874Z,20.03
2023-08-01T00:17:00.832Z,20.01
2023-08-01T00:19:28.938Z,20.11
2023-08-01T00:21:55.976Z,20.16
2023-08-01T00:24:22.898Z,20.09
2023-08-01T00:26:49.824Z,20.17
2023-08-01T00:29:16.666Z,20.17
2023-08-01T00:31:43.494Z,20.20
2023-08-01T00:34:10.422Z,20.05
2023-08-01T00:36:37.241Z,20.03
2023-08-01T00:39:04.107Z,20.09
2023-08-01T00:41:30.949Z,20.07
2023-08-01T00:43:57.798Z,20.17
2023-08-01T00:46:25.570Z,20.14
2023-08-01T00:48:53.421Z,20.16
2023-08-01T00:51:20.280Z,20.13
2023-08-01T00:53:47.347Z,20.15
2023-08-01T00:56:15.796Z,20.17
2023-08-01T00:58:42.700Z,20.05
2023-08-01T01:01:09.560Z,20.04
2023-08-01T01:03:38.701Z,20.03
2023-08-01T01:06:34.192Z,20.05
2023-08-01T01:09:01.947Z,19.99
2023-08-01T01:11:28.984Z,20.01
2023-08-01T01:13:55.917Z,20.04
2023-08-01T01:16:22.904Z,20.05
2023-08-01T01:18:49.756Z,20.00
2023-08-01T01:21:16.647Z,20.01
2023-08-01T01:23:44.983Z,19.96
2023-08-01T01:26:12.836Z,19.93
2023-08-01T01:28:40.570Z,19.83
2023-08-01T01:31:08.008Z,19.92
2023-08-01T01:33:35.306Z,19.86
2023-08-01T01:36:03.433Z,19.90
2023-08-01T01:38:30.330Z,19.90
2023-08-01T01:40:57.201Z,19.75
2023-08-01T01:43:24.072Z,19.76
2023-08-01T01:45:50.944Z,19.72
2023-08-01T01:48:17.803Z,19.60
2023-08-01T01:50:45.011Z,19.67
2023-08-01T01:53:11.957Z,19.65
2023-08-01T01:55:38.790Z,19.74
2023-08-01T01:58:06.230Z,19.72
2023-08-01T02:00:33.159Z,19.69
2023-08-01T02:03:00.018Z,19.73
2023-08-01T02:05:26.830Z,19.71
2023-08-01T02:07:53.684Z,19.68
2023-08-01T02:10:20.621Z,19.74
2023-08-01T02:12:47.534Z,19.71
2023-08-01T02:15:14.383Z,19.72
2023-08-01T02:17:41.293Z,19.74
2023-08-01T02:20:08.704Z,19.70
2023-08-01T02:22:35.554Z,19.77
2023-08-01T02:25:02.481Z,19.79
2023-08-01T02:27:29.366Z,19.70
2023-08-01T02:29:56.208Z,19.82
2023-08-01T02:32:23.130Z,19.76
2023-08-01T02:34:50.138Z,19.79
2023-08-01T02:37:17.071Z,19.71
2023-08-01T02:39:43.975Z,19.82
2023-08-01T02:42:10.849Z,19.81
2023-08-01T02:44:37.696Z,19.76
2023-08-01T02:47:04.754Z,19.82
2023-08-01T02:49:31.643Z,19.74
2023-08-01T02:51:59.734Z,19.56
2023-08-01T02:54:26.639Z,19.59
2023-08-01T02:56:53.479Z,19.69
2023-08-01T02:59:20.356Z,19.70
2023-08-01T03:01:47.256Z,19.72
2023-08-01T03:04:14.171Z,19.42
2023-08-01T03:06:41.273Z,19.30
2023-08-01T03:09:08.995Z,19.31
2023-08-01T03:11:39.129Z,19.37
2023-08-01T03:14:05.982Z,19.42
2023-08-01T03:16:33.042Z,19.37
2023-08-01T03:19:05.317Z,19.42
2023-08-01T03:21:35.881Z,19.46
2023-08-01T03:24:04.405Z,19.42
2023-08-01T03:26:31.367Z,19.53
2023-08-01T03:28:58.299Z,19.48
2023-08-01T03:31:25.214Z,19.48
2023-08-01T03:33:52.130Z,19.53
2023-08-01T03:36:19.003Z,19.51
2023-08-01T03:38:45.875Z,19.50
2023-08-01T03:41:12.813Z,19.55
2023-08-01T03:43:39.735Z,19.46
2023-08-01T03:46:06.771Z,19.53
2023-08-01T03:48:33.646Z,19.51
2023-08-01T03:51:01.478Z,19.54
2023-08-01T03:53:28.345Z,19.56
2023-08-01T03:55:55.209Z,19.53
2023-08-01T03:58:22.079Z,19.60
2023-08-01T04:00:49.121Z,19.60
2023-08-01T04:03:16.027Z,19.58
2023-08-01T04:05:42.933Z,19.58
2023-08-01T04:08:09.846Z,19.67
2023-08-01T04:10:36.718Z,19.64
2023-08-01T04:13:03.899Z,19.71
2023-08-01T04:15:31.312Z,19.68
2023-08-01T04:17:58.239Z,19.75
2023-08-01T04:20:25.136Z,19.69
2023-08-01T04:22:51.946Z,19.67
2023-08-01T04:25:19.165Z,19.62
2023-08-01T04:27:46.018Z,19.61
2023-08-01T04:30:13.222Z,19.56
2023-08-01T04:32:40.086Z,19.57
2023-08-01T04:35:07.630Z,19.62
2023-08-01T04:37:34.531Z,19.63
2023-08-01T04:40:01.354Z,19.59
2023-08-01T04:42:28.670Z,19.70
2023-08-01T04:44:55.904Z,19.65
2023-08-01T04:47:22.976Z,19.69
2023-08-01T04:49:49.834Z,19.81
2023-08-01T04:52:16.759Z,19.78
2023-08-01T04:54:43.623Z,19.91
2023-08-01T04:57:10.464Z,19.92
2023-08-01T04:59:37.306Z,19.98
2023-08-01T05:02:04.647Z,19.96
2023-08-01T05:04:31.497Z,20.03
2023-08-01T05:06:58.334Z,20.05
2023-08-01T05:09:25.179Z,20.08
2023-08-01T05:11:52.172Z,19.94
2023-08-01T05:14:18.995Z,20.07
2023-08-01T05:16:45.985Z,20.06
2023-08-01T05:19:12.831Z,20.08
2023-08-01T05:21:39.671Z,20.15
2023-08-01T05:24:06.480Z,20.17
2023-08-01T05:26:33.330Z,20.14
2023-08-01T05:29:00.153Z,20.20
2023-08-01T05:31:27.172Z,20.23
2023-08-01T05:33:53.995Z,20.22
2023-08-01T05:36:21.058Z,20.18
2023-08-01T05:38:47.925Z,20.21
2023-08-01T05:41:14.838Z,20.23
2023-08-01T05:43:41.653Z,20.25
2023-08-01T05:46:08.603Z,20.23
2023-08-01T05:48:35.544Z,20.22
2023-08-01T05:51:02.469Z,20.21
2023-08-01T05:53:29.777Z,20.23
2023-08-01T05:55:56.664Z,20.22
2023-08-01T05:58:23.529Z,20.19
2023-08-01T06:00:50.412Z,20.13
2023-08-01T06:03:17.713Z,20.15
2023-08-01T06:05:44.708Z,20.24
2023-08-01T06:08:11.650Z,20.22
2023-08-01T06:10:38.654Z,20.14
2023-08-01T06:13:05.557Z,20.22
2023-08-01T06:15:32.372Z,20.25
2023-08-01T06:17:59.303Z,20.17
2023-08-01T06:20:26.377Z,20.09
2023-08-01T06:22:53.233Z,20.12
2023-08-01T06:25:20.149Z,20.12
2023-08-01T06:27:46.994Z,20.23
2023-08-01T06:30:24.947Z,20.24
2023-08-01T06:36:10.136Z,20.22
2023-08-01T06:38:37.072Z,20.26
2023-08-01T06:41:04.194Z,20.20
2023-08-01T06:43:31.071Z,20.29
2023-08-01T06:45:58.047Z,20.35
2023-08-01T06:48:24.909Z,20.31
2023-08-01T06:50:52.101Z,20.30
2023-08-01T06:53:19.267Z,20.29
2023-08-01T06:55:46.181Z,20.30
2023-08-01T06:58:13.060Z,20.26
2023-08-01T07:00:39.920Z,20.31
2023-08-01T07:03:06.844Z,20.24
2023-08-01T07:05:33.734Z,20.27
2023-08-01T07:08:00.581Z,20.24
2023-08-01T07:10:27.435Z,20.19
2023-08-01T07:12:54.280Z,20.20
2023-08-01T07:15:21.145Z,20.21
2023-08-01T07:17:48.016Z,20.17
2023-08-01T07:20:15.043Z,20.18
2023-08-01T07:22:41.992Z,20.18
2023-08-01T07:25:11.379Z,20.14
2023-08-01T07:27:39.668Z,20.17
2023-08-01T07:30:07.610Z,20.12
2023-08-01T07:32:34.467Z,20.12
2023-08-01T07:35:01.334Z,20.05
2023-08-01T07:37:29.565Z,20.07
2023-08-01T07:39:58.425Z,20.11
2023-08-01T07:42:25.353Z,20.10
2023-08-01T07:44:52.271Z,20.08
2023-08-01T07:47:19.110Z,20.03
2023-08-01T07:49:45.923Z,20.08
2023-08-01T07:52:12.815Z,20.08
2023-08-01T07:54:39.734Z,20.03
2023-08-01T07:57:07.081Z,20.05
2023-08-01T07:59:33.989Z,20.04
2023-08-01T08:02:01.235Z,19.96
2023-08-01T08:04:28.086Z,19.96
2023-08-01T08:06:56.055Z,19.86
2023-08-01T08:09:25.712Z,19.88
2023-08-01T08:11:53.061Z,19.85
2023-08-01T08:14:21.652Z,19.76
2023-08-01T08:16:48.609Z,19.74
2023-08-01T08:19:15.511Z,19.85
2023-08-01T08:21:42.374Z,19.86
2023-08-01T08:24:09.318Z,19.80
2023-08-01T08:26:38.924Z,19.70
2023-08-01T08:29:06.196Z,19.74
2023-08-01T08:31:33.150Z,19.73
2023-08-01T08:33:59.995Z,19.41
2023-08-01T08:36:26.853Z,19.48
2023-08-01T08:38:53.914Z,19.53
2023-08-01T08:41:27.373Z,19.56
2023-08-01T08:43:58.827Z,19.59
2023-08-01T08:46:31.098Z,19.51
2023-08-01T08:48:59.462Z,19.54
2023-08-01T08:51:29.316Z,19.51
2023-08-01T08:53:59.711Z,19.46
2023-08-01T08:56:29.439Z,19.52
2023-08-01T08:58:58.232Z,19.53
2023-08-01T09:01:25.197Z,19.45
2023-08-01T09:03:52.087Z,19.57
2023-08-01T09:06:25.546Z,19.43
2023-08-01T09:09:11.271Z,19.43
2023-08-01T09:11:50.821Z,19.43
2023-08-01T09:14:18.883Z,19.42
2023-08-01T09:16:48.308Z,19.49
2023-08-01T09:19:22.905Z,19.46
2023-08-01T09:21:50.867Z,19.49
2023-08-01T09:24:22.264Z,19.51
2023-08-01T09:26:50.368Z,19.41
2023-08-01T09:29:19.161Z,19.44
2023-08-01T09:31:46.236Z,19.38
2023-08-01T09:34:24.493Z,19.45
2023-08-01T09:36:52.835Z,19.44
2023-08-01T09:39:21.897Z,19.41
2023-08-01T09:41:59.936Z,19.42
2023-08-01T09:44:29.060Z,19.27
2023-08-01T09:47:04.542Z,19.35
2023-08-01T09:49:32.375Z,19.37
2023-08-01T09:52:00.711Z,19.36
2023-08-01T09:54:27.573Z,19.22
2023-08-01T09:56:55.689Z,19.26
2023-08-01T09:59:25.750Z,19.17
2023-08-01T10:01:55.548Z,19.35
2023-08-01T10:04:27.859Z,19.29
2023-08-01T10:07:13.000Z,19.31
2023-08-01T10:09:41.889Z,19.35
2023-08-01T10:12:10.109Z,19.32
2023-08-01T10:14:37.700Z,19.34
2023-08-01T10:17:04.840Z,19.21
2023-08-01T10:19:36.405Z,19.34
2023-08-01T10:22:05.375Z,19.35
2023-08-01T10:24:33.693Z,19.32
2023-08-01T10:27:24.892Z,19.38
2023-08-01T10:30:04.657Z,19.45
2023-08-01T10:32:37.361Z,19.48
2023-08-01T10:35:05.269Z,19.49
2023-08-01T10:37:46.692Z,19.49
2023-08-01T10:40:16.126Z,19.52
2023-08-01T10:42:45.835Z,19.47
2023-08-01T10:45:25.802Z,19.66
2023-08-01T10:47:53.753Z,19.59
2023-08-01T10:50:20.920Z,19.72
2023-08-01T10:52:47.888Z,19.72
2023-08-01T10:55:14.937Z,19.75
2023-08-01T10:57:50.482Z,19.73
2023-08-01T11:00:18.774Z,19.79
2023-08-01T11:02:53.305Z,19.92
2023-08-01T11:05:20.286Z,19.91
2023-08-01T11:07:58.274Z,20.00
2023-08-01T11:10:31.521Z,19.97
2023-08-01T11:12:59.818Z,20.08
2023-08-01T11:15:26.677Z,20.10
2023-08-01T11:17:56.294Z,20.21
2023-08-01T11:20:25.789Z,20.10
2023-08-01T11:22:55.366Z,20.24
2023-08-01T11:25:50.026Z,20.31
2023-08-01T11:28:18.506Z,20.33
2023-08-01T11:30:46.901Z,20.39
2023-08-01T11:33:24.869Z,20.58
2023-08-01T11:35:58.530Z,20.74
2023-08-01T11:38:30.423Z,20.80
2023-08-01T11:41:01.592Z,20.91
2023-08-01T11:43:42.671Z,21.20
2023-08-01T11:46:10.237Z,21.26
2023-08-01T11:48:37.909Z,21.39
2023-08-01T11:51:05.425Z,21.42
2023-08-01T11:53:39.194Z,21.56
2023-08-01T11:56:06.814Z,21.68
2023-08-01T11:58:41.854Z,21.74
2023-08-01T12:01:13.786Z,21.84
2023-08-01T12:04:07.348Z,21.89
2023-08-01T12:06:34.840Z,21.94
2023-08-01T12:09:14.753Z,22.02
2023-08-01T12:11:42.697Z,22.18
2023-08-01T12:14:14.680Z,22.27
2023-08-01T12:16:47.045Z,22.36
2023-08-01T12:19:21.525Z,22.34
2023-08-01T12:21:49.465Z,22.43
2023-08-01T12:24:16.336Z,22.34
2023-08-01T12:26:43.446Z,22.39
2023-08-01T12:29:11.503Z,22.49
2023-08-01T12:31:38.657Z,22.44
2023-08-01T12:34:05.644Z,22.29
2023-08-01T12:36:32.587Z,22.31
2023-08-01T12:38:59.550Z,22.26
2023-08-01T12:41:26.481Z,22.22
2023-08-01T12:43:53.434Z,22.26
2023-08-01T12:46:20.422Z,22.24
2023-08-01T12:48:47.902Z,22.21
2023-08-01T12:51:15.768Z,22.31
2023-08-01T12:53:43.896Z,22.38
2023-08-01T12:56:10.883Z,22.33
2023-08-01T12:58:38.030Z,22.50
2023-08-01T13:01:05.193Z,22.56
2023-08-01T13:03:32.143Z,22.49
2023-08-01T13:05:59.502Z,22.45
2023-08-01T13:08:26.524Z,22.40
2023-08-01T13:10:53.359Z,22.40
2023-08-01T13:13:20.355Z,22.51
2023-08-01T13:15:47.248Z,22.51
2023-08-01T13:18:15.131Z,22.49
2023-08-01T13:20:42.119Z,22.58
2023-08-01T13:23:09.468Z,22.58
2023-08-01T13:25:36.825Z,22.54
2023-08-01T13:28:03.900Z,22.50
2023-08-01T13:30:30.748Z,22.57
2023-08-01T13:32:57.635Z,22.57
2023-08-01T13:35:24.454Z,22.59
2023-08-01T13:37:51.280Z,22.62
2023-08-01T13:40:18.098Z,22.60
2023-08-01T13:42:44.918Z,22.67
2023-08-01T13:45:11.844Z,22.65
2023-08-01T13:47:38.811Z,22.59
2023-08-01T13:50:06.201Z,22.59
2023-08-01T13:52:33.064Z,22.66
2023-08-01T13:54:59.908Z,22.60
2023-08-01T13:57:27.458Z,22.70
2023-08-01T14:00:02.260Z,22.67
2023-08-01T14:02:37.606Z,22.75
2023-08-01T14:05:04.916Z,22.83
2023-08-01T14:07:31.733Z,22.81
2023-08-01T14:09:58.575Z,22.81
2023-08-01T14:12:25.748Z,22.66
2023-08-01T14:14:52.602Z,22.85
2023-08-01T14:17:19.429Z,22.84
2023-08-01T14:19:46.262Z,22.80
2023-08-01T14:22:13.074Z,22.86
2023-08-01T14:24:39.969Z,22.86
2023-08-01T14:27:07.044Z,22.91
2023-08-01T14:29:33.898Z,22.91
2023-08-01T14:32:00.809Z,22.93
2023-08-01T14:34:27.636Z,23.00
2023-08-01T14:36:54.460Z,22.94
2023-08-01T14:39:23.047Z,23.07
2023-08-01T14:44:20.694Z,22.99
2023-08-01T14:46:47.683Z,23.03
2023-08-01T14:49:14.586Z,22.96
2023-08-01T14:51:41.478Z,22.92
2023-08-01T14:54:09.070Z,22.96
2023-08-01T14:56:36.760Z,22.97
2023-08-01T14:59:04.503Z,23.03
2023-08-01T15:01:31.547Z,23.03
2023-08-01T15:03:58.508Z,23.06
2023-08-01T15:06:26.877Z,23.01
2023-08-01T15:08:53.854Z,23.06
2023-08-01T15:11:21.977Z,22.92
2023-08-01T15:13:48.840Z,23.03
2023-08-01T15:16:15.734Z,23.10
2023-08-01T15:18:43.117Z,23.07
2023-08-01T15:21:09.947Z,23.04
2023-08-01T15:23:36.809Z,23.04
2023-08-01T15:26:03.624Z,23.08
2023-08-01T15:28:30.476Z,22.95
2023-08-01T15:31:08.898Z,23.07
2023-08-01T15:33:38.247Z,23.00
2023-08-01T15:36:07.520Z,22.92
2023-08-01T15:38:37.137Z,22.92
2023-08-01T15:41:08.808Z,22.92
2023-08-01T15:43:38.388Z,22.89
2023-08-01T15:46:06.548Z,22.87
2023-08-01T15:48:35.007Z,22.84
2023-08-01T15:51:04.449Z,22.82
2023-08-01T15:53:31.453Z,22.90
2023-08-01T15:56:00.545Z,22.92
2023-08-01T15:58:28.440Z,22.95
2023-08-01T16:00:55.497Z,22.91
2023-08-01T16:03:22.539Z,22.88
2023-08-01T16:05:50.274Z,22.99
2023-08-01T16:08:18.040Z,22.97
2023-08-01T16:10:45.512Z,23.11
2023-08-01T16:13:13.674Z,23.12
2023-08-01T16:15:42.046Z,23.20
2023-08-01T16:18:09.489Z,23.12
2023-08-01T16:20:36.961Z,22.97
2023-08-01T16:23:04.419Z,23.05
2023-08-01T16:25:31.306Z,23.15
2023-08-01T16:27:58.159Z,23.10
2023-08-01T16:30:25.180Z,23.13
2023-08-01T16:32:52.196Z,23.00
2023-08-01T16:35:19.666Z,23.07
2023-08-01T16:37:47.165Z,22.93
2023-08-01T16:40:14.320Z,23.01
2023-08-01T16:42:41.516Z,23.03
2023-08-01T16:45:11.010Z,23.08
2023-08-01T16:47:43.014Z,23.00
2023-08-01T16:50:18.637Z,22.99
2023-08-01T16:52:47.014Z,22.99
2023-08-01T16:55:15.096Z,22.93
2023-08-01T16:57:41.991Z,22.93
2023-08-01T17:00:11.317Z,22.95
2023-08-01T17:02:38.627Z,22.98
2023-08-01T17:05:06.614Z,22.97
2023-08-01T17:07:33.500Z,22.96
2023-08-01T17:10:03.877Z,22.97
2023-08-01T17:12:30.760Z,22.86
2023-08-01T17:14:57.641Z,22.91
2023-08-01T17:17:24.571Z,22.86
2023-08-01T17:19:51.577Z,22.84
2023-08-01T17:22:18.602Z,22.86
2023-08-01T17:24:45.553Z,22.85
2023-08-01T17:27:12.497Z,22.87
2023-08-01T17:29:39.422Z,22.90
2023-08-01T17:32:06.560Z,22.88
2023-08-01T17:34:33.879Z,22.84
2023-08-01T17:37:00.856Z,22.73
2023-08-01T17:39:28.691Z,22.75
2023-08-01T17:41:57.874Z,22.88
2023-08-01T17:44:25.454Z,22.74
2023-08-01T17:46:53.586Z,22.71
2023-08-01T17:49:20.456Z,22.70
2023-08-01T17:51:47.307Z,22.73
2023-08-01T17:54:14.345Z,22.63
2023-08-01T17:56:42.281Z,22.68
2023-08-01T17:59:09.576Z,22.66
2023-08-01T18:01:36.527Z,22.63
2023-08-01T18:04:05.409Z,22.69
2023-08-01T18:06:32.374Z,22.64
2023-08-01T18:08:59.230Z,22.65
2023-08-01T18:11:30.514Z,22.50
2023-08-01T18:14:03.863Z,22.49
2023-08-01T18:16:30.859Z,22.53
2023-08-01T18:18:57.813Z,22.52
2023-08-01T18:21:24.738Z,22.49
2023-08-01T18:23:51.741Z,22.49
2023-08-01T18:26:24.871Z,22.42
2023-08-01T18:28:55.856Z,22.38
2023-08-01T18:31:24.410Z,22.34
2023-08-01T18:33:51.287Z,22.24
2023-08-01T18:36:21.433Z,22.30
2023-08-01T18:38:50.313Z,22.27
2023-08-01T18:41:19.975Z,22.20
2023-08-01T18:43:47.323Z,22.17
2023-08-01T18:46:15.276Z,22.12
2023-08-01T18:48:42.289Z,22.09
2023-08-01T18:51:23.098Z,22.10
2023-08-01T18:53:50.137Z,21.96
2023-08-01T18:56:22.074Z,21.96
2023-08-01T18:58:49.664Z,21.88
2023-08-01T19:01:21.462Z,21.84
2023-08-01T19:03:48.533Z,21.83
2023-08-01T19:06:19.423Z,21.74
2023-08-01T19:08:47.421Z,21.75
2023-08-01T19:11:14.822Z,21.69
2023-08-01T19:13:42.958Z,21.72
2023-08-01T19:16:10.072Z,21.70
2023-08-01T19:18:36.942Z,21.64
2023-08-01T19:21:04.201Z,21.65
2023-08-01T19:23:31.269Z,21.58
2023-08-01T19:26:06.442Z,21.50
2023-08-01T19:28:33.276Z,21.56
2023-08-01T19:31:00.112Z,21.49
2023-08-01T19:33:26.924Z,21.45
2023-08-01T19:35:54.839Z,21.43
2023-08-01T19:38:21.780Z,21.42
2023-08-01T19:40:49.173Z,21.40
2023-08-01T19:43:16.215Z,21.30
2023-08-01T19:45:44.921Z,21.34
2023-08-01T19:48:12.395Z,21.31
2023-08-01T19:50:39.782Z,21.33
2023-08-01T19:53:08.047Z,21.24
2023-08-01T19:55:37.000Z,21.31
2023-08-01T19:58:04.385Z,21.25
2023-08-01T20:00:31.327Z,21.27
2023-08-01T20:02:58.458Z,21.15
2023-08-01T20:05:25.858Z,21.09
2023-08-01T20:07:52.808Z,21.11
2023-08-01T20:10:20.013Z,21.13
2023-08-01T20:12:46.889Z,21.09
2023-08-01T20:15:13.933Z,21.12
2023-08-01T20:17:41.982Z,21.04
2023-08-01T20:20:10.718Z,21.12
2023-08-01T20:22:38.278Z,21.11
2023-08-01T20:25:06.990Z,20.89
2023-08-01T20:27:34.280Z,21.01
2023-08-01T20:30:01.206Z,21.03
2023-08-01T20:32:28.196Z,20.91
2023-08-01T20:34:55.133Z,20.95
2023-08-01T20:37:22.059Z,20.97
2023-08-01T20:39:48.956Z,20.90
2023-08-01T20:42:15.884Z,20.94
2023-08-01T20:44:42.909Z,20.82
2023-08-01T20:47:10.561Z,20.77
2023-08-01T20:49:37.406Z,20.76
2023-08-01T20:52:04.549Z,20.84
2023-08-01T20:54:31.390Z,20.74
2023-08-01T20:56:58.909Z,20.75
2023-08-01T20:59:25.964Z,20.75
2023-08-01T21:01:52.807Z,20.70
2023-08-01T21:04:19.742Z,20.76
2023-08-01T21:06:46.870Z,20.62
2023-08-01T21:09:13.977Z,20.69
2023-08-01T21:11:40.788Z,20.70
2023-08-01T21:14:07.626Z,20.59
2023-08-01T21:16:34.461Z,20.68
2023-08-01T21:19:01.317Z,20.71
2023-08-01T21:21:28.190Z,20.67
2023-08-01T21:23:55.154Z,20.62
2023-08-01T21:26:21.982Z,20.60
2023-08-01T21:28:48.890Z,20.16
2023-08-01T21:31:15.786Z,20.10
2023-08-01T21:33:42.678Z,20.11
2023-08-01T21:36:09.582Z,20.19
2023-08-01T21:38:36.751Z,20.23
2023-08-01T21:41:03.911Z,20.33
2023-08-01T21:43:31.109Z,20.35
2023-08-01T21:46:01.511Z,20.27
2023-08-01T21:48:29.322Z,20.36
2023-08-01T21:50:56.230Z,20.25
2023-08-01T21:53:23.086Z,20.18
2023-08-01T21:55:49.966Z,20.09
2023-08-01T21:58:17.032Z,20.13
2023-08-01T22:00:45.200Z,20.06
2023-08-01T22:03:15.260Z,20.07
2023-08-01T22:05:42.259Z,20.00
2023-08-01T22:08:09.308Z,20.12
2023-08-01T22:10:37.042Z,20.18
2023-08-01T22:13:04.238Z,20.10
2023-08-01T22:15:31.343Z,19.98
2023-08-01T22:17:58.423Z,19.93
2023-08-01T22:20:25.409Z,20.01
2023-08-01T22:22:52.467Z,19.71
2023-08-01T22:25:19.469Z,19.92
2023-08-01T22:27:46.409Z,19.85
2023-08-01T22:30:13.442Z,19.83
2023-08-01T22:32:40.373Z,19.92
2023-08-01T22:35:08.453Z,20.02
2023-08-01T22:37:35.382Z,20.06
2023-08-01T22:40:02.750Z,20.11
2023-08-01T22:42:29.724Z,20.04
2023-08-01T22:44:56.598Z,20.04
2023-08-01T22:47:23.471Z,20.08
2023-08-01T22:50:04.624Z,20.09
2023-08-01T22:52:33.269Z,20.02
2023-08-01T22:55:00.738Z,20.04
2023-08-01T22:57:27.844Z,19.82
2023-08-01T22:59:54.724Z,19.03
2023-08-01T23:02:21.623Z,18.83
2023-08-01T23:04:48.710Z,19.03
2023-08-01T23:07:16.337Z,19.23
2023-08-01T23:09:43.727Z,19.35
2023-08-01T23:12:10.729Z,19.43
2023-08-01T23:14:37.665Z,19.37
2023-08-01T23:17:04.833Z,19.43
2023-08-01T23:19:31.786Z,19.48
2023-08-01T23:21:58.678Z,19.16
2023-08-01T23:24:25.568Z,19.13
2023-08-01T23:26:52.374Z,19.19
2023-08-01T23:29:19.194Z,19.30
2023-08-01T23:31:46.009Z,19.26
2023-08-01T23:34:12.840Z,19.37
2023-08-01T23:36:40.021Z,19.37
2023-08-01T23:39:07.430Z,19.34
2023-08-01T23:41:34.339Z,19.36
2023-08-01T23:44:01.194Z,19.32
2023-08-01T23:46:28.115Z,19.26
2023-08-01T23:48:55.184Z,19.30
2023-08-01T23:51:22.341Z,19.26
2023-08-01T23:53:49.221Z,19.26
2023-08-01T23:56:16.113Z,19.25
2023-08-01T23:58:43.144Z,19.24
